createdAt,value
2019-04-10T00:01:42.336Z,-0.73
2019-04-10T00:03:50.574Z,-0.76
2019-04-10T00:05:58.333Z,-0.79
2019-04-10T00:08:06.181Z,-0.82
2019-04-10T00:10:13.928Z,-0.85
2019-04-10T00:12:21.235Z,-0.86
2019-04-10T00:14:28.273Z,-0.87
2019-04-10T00:16:36.121Z,-0.89
2019-04-10T00:18:42.616Z,-0.90
2019-04-10T00:20:49.457Z,-0.95
2019-04-10T00:22:56.460Z,-0.93
2019-04-10T00:25:04.225Z,-0.95
2019-04-10T00:27:10.923Z,-0.97
2019-04-10T00:29:18.238Z,-0.99
2019-04-10T00:31:26.351Z,-1.00
2019-04-10T00:33:33.193Z,-1.00
2019-04-10T00:35:40.402Z,-1.05
2019-04-10T00:37:49.150Z,-1.08
2019-04-10T00:39:55.764Z,-1.10
2019-04-10T00:42:03.064Z,-1.12
2019-04-10T00:44:11.100Z,-1.12
2019-04-10T00:46:17.864Z,-1.16
2019-04-10T00:48:24.479Z,-1.16
2019-04-10T00:50:30.942Z,-1.20
2019-04-10T00:52:38.577Z,-1.22
2019-04-10T00:54:46.856Z,-1.24
2019-04-10T00:56:53.522Z,-1.23
2019-04-10T00:59:00.491Z,-1.24
2019-04-10T01:01:08.393Z,-1.25
2019-04-10T01:03:17.634Z,-1.29
2019-04-10T01:05:24.874Z,-1.30
2019-04-10T01:07:37.575Z,-1.34
2019-04-10T01:09:39.688Z,-1.35
2019-04-10T01:11:46.147Z,-1.35
2019-04-10T01:13:54.438Z,-1.36
2019-04-10T01:16:01.222Z,-1.39
2019-04-10T01:18:07.805Z,-1.41
2019-04-10T01:20:15.574Z,-1.43
2019-04-10T01:22:23.924Z,-1.44
2019-04-10T01:24:31.091Z,-1.46
2019-04-10T01:26:39.581Z,-1.50
2019-04-10T01:28:46.817Z,-1.51
2019-04-10T01:30:54.942Z,-1.50
2019-04-10T01:33:01.437Z,-1.51
2019-04-10T01:35:09.828Z,-1.53
2019-04-10T01:37:16.666Z,-1.53
2019-04-10T01:39:25.034Z,-1.53
2019-04-10T01:41:32.708Z,-1.53
2019-04-10T01:43:41.229Z,-1.58
2019-04-10T01:45:50.155Z,-1.57
2019-04-10T01:47:57.029Z,-1.58
2019-04-10T01:50:06.260Z,-1.62
2019-04-10T01:52:13.017Z,-1.62
2019-04-10T01:54:20.007Z,-1.63
2019-04-10T01:56:31.744Z,-1.64
2019-04-10T01:58:35.096Z,-1.63
2019-04-10T02:00:44.420Z,-1.66
2019-04-10T02:02:56.950Z,-1.67
2019-04-10T02:05:06.747Z,-1.70
2019-04-10T02:07:13.896Z,-1.72
2019-04-10T02:09:21.287Z,-1.72
2019-04-10T02:11:28.100Z,-1.70
2019-04-10T02:13:35.787Z,-1.74
2019-04-10T02:15:44.043Z,-1.69
2019-04-10T02:17:50.892Z,-1.69
2019-04-10T02:19:57.345Z,-1.68
2019-04-10T02:22:06.690Z,-1.72
2019-04-10T02:24:13.359Z,-1.72
2019-04-10T02:26:20.023Z,-1.71
2019-04-10T02:28:29.132Z,-1.75
2019-04-10T02:30:37.333Z,-1.75
2019-04-10T02:32:50.209Z,-1.70
2019-04-10T02:34:57.365Z,-1.66
2019-04-10T02:37:10.851Z,-1.66
2019-04-10T02:39:27.526Z,-1.69
2019-04-10T02:41:27.916Z,-1.71
2019-04-10T02:43:35.915Z,-1.72
2019-04-10T02:45:44.458Z,-1.64
2019-04-10T02:47:52.824Z,-1.64
2019-04-10T02:50:00.699Z,-1.63
2019-04-10T02:52:08.822Z,-1.62
2019-04-10T02:54:17.556Z,-1.61
2019-04-10T02:56:25.394Z,-1.61
2019-04-10T02:58:32.414Z,-1.62
2019-04-10T03:00:39.502Z,-1.63
2019-04-10T03:02:47.900Z,-1.65
2019-04-10T03:04:55.306Z,-1.66
2019-04-10T03:07:02.157Z,-1.67
2019-04-10T03:09:28.165Z,-1.68
2019-04-10T03:11:20.054Z,-1.72
2019-04-10T03:13:28.891Z,-1.72
2019-04-10T03:15:36.053Z,-1.72
2019-04-10T03:17:43.996Z,-1.74
2019-04-10T03:19:52.238Z,-1.76
2019-04-10T03:22:00.347Z,-1.75
2019-04-10T03:24:07.583Z,-1.76
2019-04-10T03:26:15.315Z,-1.75
2019-04-10T03:28:22.943Z,-1.75
2019-04-10T03:30:31.501Z,-1.73
2019-04-10T03:32:48.545Z,-1.72
2019-04-10T03:34:54.983Z,-1.74
2019-04-10T03:37:02.783Z,-1.74
2019-04-10T03:39:10.787Z,-1.74
2019-04-10T03:41:17.792Z,-1.76
2019-04-10T03:43:24.497Z,-1.77
2019-04-10T03:45:30.910Z,-1.75
2019-04-10T03:47:37.666Z,-1.78
2019-04-10T03:49:44.457Z,-1.79
2019-04-10T03:51:51.111Z,-1.80
2019-04-10T03:54:00.320Z,-1.78
2019-04-10T03:56:07.544Z,-1.78
2019-04-10T03:58:14.102Z,-1.76
2019-04-10T04:00:21.102Z,-1.74
2019-04-10T04:02:27.548Z,-1.73
2019-04-10T04:04:34.455Z,-1.72
2019-04-10T04:06:42.011Z,-1.71
2019-04-10T04:09:01.672Z,-1.69
2019-04-10T04:10:57.798Z,-1.65
2019-04-10T04:13:06.532Z,-1.54
2019-04-10T04:15:13.912Z,-1.42
2019-04-10T04:17:22.511Z,-1.31
2019-04-10T04:19:30.966Z,-1.21
2019-04-10T04:21:41.892Z,-1.05
2019-04-10T04:23:48.381Z,-0.91
2019-04-10T04:25:56.840Z,-0.77
2019-04-10T04:28:03.231Z,-0.61
2019-04-10T04:30:12.394Z,-0.47
2019-04-10T04:32:19.680Z,-0.35
2019-04-10T04:34:27.229Z,-0.23
2019-04-10T04:39:39.695Z,0.00
2019-04-10T04:41:46.353Z,0.13
2019-04-10T04:43:53.403Z,0.23
2019-04-10T04:45:59.675Z,0.33
2019-04-10T04:48:11.993Z,0.41
2019-04-10T04:50:18.338Z,0.50
2019-04-10T04:52:25.843Z,0.61
2019-04-10T04:54:33.002Z,0.66
2019-04-10T04:56:40.030Z,0.72
2019-04-10T04:58:47.537Z,0.78
2019-04-10T05:00:54.416Z,0.85
2019-04-10T05:03:01.882Z,0.91
2019-04-10T05:05:09.327Z,0.99
2019-04-10T05:07:16.808Z,1.03
2019-04-10T05:09:31.108Z,1.09
2019-04-10T05:11:31.805Z,1.18
2019-04-10T05:13:38.459Z,1.24
2019-04-10T05:15:45.139Z,1.30
2019-04-10T05:17:54.153Z,1.37
2019-04-10T05:20:00.894Z,1.43
2019-04-10T05:22:08.027Z,1.47
2019-04-10T05:24:17.771Z,1.53
2019-04-10T05:26:26.485Z,1.55
2019-04-10T05:28:34.299Z,1.54
2019-04-10T05:30:41.455Z,1.56
2019-04-10T05:32:47.927Z,1.58
2019-04-10T05:34:54.622Z,1.56
2019-04-10T05:37:01.175Z,1.58
2019-04-10T05:39:10.482Z,1.62
2019-04-10T05:41:17.773Z,1.66
2019-04-10T05:43:24.456Z,1.70
2019-04-10T05:45:32.546Z,1.71
2019-04-10T05:47:40.655Z,1.74
2019-04-10T05:49:47.319Z,1.78
2019-04-10T05:51:53.973Z,1.77
2019-04-10T05:54:00.234Z,1.80
2019-04-10T05:56:09.882Z,1.82
2019-04-10T05:58:17.433Z,1.86
2019-04-10T06:00:24.998Z,1.88
2019-04-10T06:02:32.262Z,1.90
2019-04-10T06:04:38.720Z,1.93
2019-04-10T06:06:46.503Z,1.98
2019-04-10T06:08:54.397Z,2.02
2019-04-10T06:11:00.785Z,2.08
2019-04-10T06:13:07.570Z,2.10
2019-04-10T06:15:14.820Z,2.19
2019-04-10T06:17:23.115Z,2.25
2019-04-10T06:19:29.892Z,2.30
2019-04-10T06:21:39.525Z,2.31
2019-04-10T06:23:49.837Z,2.35
2019-04-10T06:25:58.447Z,2.34
2019-04-10T06:28:05.336Z,2.40
2019-04-10T06:30:13.320Z,2.42
2019-04-10T06:32:19.654Z,2.50
2019-04-10T06:34:26.579Z,2.56
2019-04-10T06:36:33.418Z,2.66
2019-04-10T06:38:41.273Z,2.67
2019-04-10T06:40:48.247Z,2.70
2019-04-10T06:42:57.672Z,2.75
2019-04-10T06:45:07.246Z,2.75
2019-04-10T06:47:14.034Z,2.73
2019-04-10T06:49:20.805Z,2.68
2019-04-10T06:51:27.374Z,2.69
2019-04-10T06:53:35.190Z,2.69
2019-04-10T06:55:42.665Z,2.68
2019-04-10T06:57:55.778Z,2.68
2019-04-10T07:00:00.543Z,2.71
2019-04-10T07:02:19.488Z,2.81
2019-04-10T07:04:21.019Z,2.88
2019-04-10T07:06:39.339Z,2.91
2019-04-10T07:08:32.403Z,3.01
2019-04-10T07:10:48.257Z,3.14
2019-04-10T07:12:51.339Z,3.26
2019-04-10T07:14:58.348Z,3.38
2019-04-10T07:17:08.901Z,3.55
2019-04-10T07:19:15.739Z,3.58
2019-04-10T07:21:24.284Z,3.67
2019-04-10T07:23:33.786Z,3.65
2019-04-10T07:25:44.451Z,3.71
2019-04-10T07:27:48.598Z,3.78
2019-04-10T07:29:59.760Z,3.76
2019-04-10T07:32:09.636Z,3.80
2019-04-10T07:34:19.997Z,3.80
2019-04-10T07:36:24.611Z,3.80
2019-04-10T07:38:31.164Z,3.81
2019-04-10T07:40:38.650Z,3.67
2019-04-10T07:42:46.259Z,3.65
2019-04-10T07:44:56.271Z,3.67
2019-04-10T07:47:01.230Z,3.76
2019-04-10T07:49:08.526Z,3.77
2019-04-10T07:51:15.280Z,3.77
2019-04-10T07:53:22.898Z,3.93
2019-04-10T07:55:30.835Z,3.92
2019-04-10T07:57:38.396Z,3.88
2019-04-10T07:59:45.448Z,4.07
2019-04-10T08:01:58.069Z,4.20
2019-04-10T08:04:06.227Z,4.21
2019-04-10T08:06:13.194Z,4.29
2019-04-10T08:08:21.470Z,4.45
2019-04-10T08:10:28.432Z,4.47
2019-04-10T08:12:44.899Z,4.56
2019-04-10T08:14:44.109Z,4.85
2019-04-10T08:16:51.864Z,5.05
2019-04-10T08:18:59.683Z,5.19
2019-04-10T08:21:07.115Z,5.49
2019-04-10T08:23:17.560Z,5.68
2019-04-10T08:25:33.285Z,5.89
2019-04-10T08:27:41.962Z,5.89
2019-04-10T08:29:50.638Z,6.14
2019-04-10T08:31:59.201Z,6.16
2019-04-10T08:34:07.419Z,6.19
2019-04-10T08:36:21.651Z,6.30
2019-04-10T08:38:32.299Z,6.11
2019-04-10T08:40:43.862Z,6.17
2019-04-10T08:42:51.324Z,6.04
2019-04-10T08:44:58.181Z,5.81
2019-04-10T08:47:04.878Z,5.81
2019-04-10T08:49:12.611Z,5.84
2019-04-10T08:51:21.363Z,5.68
2019-04-10T08:53:28.775Z,5.79
2019-04-10T08:55:36.298Z,5.78
2019-04-10T08:57:43.833Z,5.76
2019-04-10T08:59:51.981Z,5.71
2019-04-10T09:01:58.376Z,5.64
2019-04-10T09:04:05.746Z,5.84
2019-04-10T09:06:13.274Z,6.01
2019-04-10T09:08:21.694Z,5.94
2019-04-10T09:10:28.407Z,6.05
2019-04-10T09:12:35.222Z,6.15
2019-04-10T09:14:41.871Z,6.05
2019-04-10T09:16:51.052Z,6.06
2019-04-10T09:18:58.379Z,6.22
2019-04-10T09:21:06.898Z,6.06
2019-04-10T09:23:25.129Z,6.13
2019-04-10T09:25:27.027Z,6.07
2019-04-10T09:27:34.361Z,6.26
2019-04-10T09:29:42.571Z,6.22
2019-04-10T09:31:50.243Z,6.29
2019-04-10T09:33:57.350Z,6.28
2019-04-10T09:36:05.805Z,6.34
2019-04-10T09:38:12.737Z,6.50
2019-04-10T09:40:20.399Z,6.45
2019-04-10T09:42:27.752Z,6.52
2019-04-10T09:44:34.480Z,6.29
2019-04-10T09:46:40.954Z,6.26
2019-04-10T09:48:47.734Z,6.47
2019-04-10T09:50:54.501Z,6.95
2019-04-10T09:53:02.081Z,6.91
2019-04-10T09:55:09.215Z,7.08
2019-04-10T09:57:15.643Z,6.99
2019-04-10T09:59:33.012Z,7.20
2019-04-10T10:01:31.035Z,7.28
2019-04-10T10:03:38.096Z,7.38
2019-04-10T10:05:45.019Z,7.38
2019-04-10T10:07:53.616Z,7.14
2019-04-10T10:10:01.257Z,6.85
2019-04-10T10:12:11.677Z,6.72
2019-04-10T10:14:18.892Z,6.51
2019-04-10T10:16:27.492Z,6.67
2019-04-10T10:18:37.330Z,6.67
2019-04-10T10:20:46.011Z,6.73
2019-04-10T10:22:57.707Z,6.72
2019-04-10T10:25:09.380Z,6.82
2019-04-10T10:27:16.246Z,7.06
2019-04-10T10:29:23.798Z,7.29
2019-04-10T10:31:32.476Z,7.34
2019-04-10T10:33:42.981Z,7.31
2019-04-10T10:35:51.554Z,7.37
2019-04-10T10:38:19.057Z,7.05
2019-04-10T10:40:25.867Z,6.41
2019-04-10T10:42:33.765Z,6.62
2019-04-10T10:44:40.633Z,6.79
2019-04-10T10:46:49.492Z,6.67
2019-04-10T10:48:58.424Z,6.61
2019-04-10T10:51:07.222Z,6.55
2019-04-10T10:53:16.354Z,6.38
2019-04-10T10:55:23.308Z,6.39
2019-04-10T10:57:31.193Z,6.56
2019-04-10T10:59:41.784Z,6.63
2019-04-10T11:01:51.933Z,6.74
2019-04-10T11:03:58.900Z,6.87
2019-04-10T11:06:06.619Z,6.74
2019-04-10T11:08:15.289Z,6.62
2019-04-10T11:10:27.452Z,6.28
2019-04-10T11:12:42.361Z,6.07
2019-04-10T11:14:56.182Z,6.06
2019-04-10T11:17:05.385Z,6.25
2019-04-10T11:19:13.056Z,6.32
2019-04-10T11:21:20.607Z,6.20
2019-04-10T11:23:30.445Z,6.31
2019-04-10T11:25:40.151Z,6.17
2019-04-10T11:27:47.846Z,5.96
2019-04-10T11:29:55.053Z,6.01
2019-04-10T11:32:02.273Z,6.05
2019-04-10T11:34:09.965Z,5.99
2019-04-10T11:38:33.550Z,5.89
2019-04-10T11:40:41.974Z,6.24
2019-04-10T11:42:49.073Z,6.74
2019-04-10T11:44:55.563Z,6.88
2019-04-10T11:47:02.888Z,6.90
2019-04-10T11:49:13.821Z,6.55
2019-04-10T11:51:20.862Z,6.55
2019-04-10T11:53:27.458Z,6.23
2019-04-10T11:55:43.878Z,6.37
2019-04-10T11:57:49.012Z,6.36
2019-04-10T11:59:56.952Z,6.39
2019-04-10T12:02:06.490Z,6.39
2019-04-10T12:04:14.122Z,6.40
2019-04-10T12:06:25.256Z,6.40
2019-04-10T12:12:49.942Z,6.51
2019-04-10T12:14:57.237Z,6.35
2019-04-10T12:17:05.377Z,6.29
2019-04-10T12:19:13.653Z,6.30
2019-04-10T12:21:20.497Z,6.47
2019-04-10T12:23:29.231Z,6.53
2019-04-10T12:25:36.645Z,6.39
2019-04-10T12:27:45.630Z,6.46
2019-04-10T12:29:55.124Z,6.60
2019-04-10T12:32:01.717Z,6.61
2019-04-10T12:34:11.495Z,6.40
2019-04-10T12:36:18.348Z,6.49
2019-04-10T12:38:25.578Z,6.65
2019-04-10T12:40:33.663Z,6.49
2019-04-10T12:42:40.673Z,6.50
2019-04-10T12:44:47.303Z,6.57
2019-04-10T12:46:55.705Z,6.72
2019-04-10T12:49:03.752Z,6.70
2019-04-10T12:51:11.899Z,6.75
2019-04-10T12:53:19.129Z,7.05
2019-04-10T12:55:28.238Z,6.87
2019-04-10T12:57:35.661Z,6.63
2019-04-10T12:59:42.407Z,6.63
2019-04-10T13:01:51.104Z,6.66
2019-04-10T13:03:59.862Z,6.58
2019-04-10T13:06:07.954Z,6.35
2019-04-10T13:08:25.646Z,6.30
2019-04-10T13:10:34.197Z,6.49
2019-04-10T13:12:45.303Z,6.72
2019-04-10T13:14:57.000Z,6.82
2019-04-10T13:17:06.715Z,7.19
2019-04-10T13:19:13.720Z,7.23
2019-04-10T13:21:24.834Z,6.70
2019-04-10T13:23:31.664Z,6.66
2019-04-10T13:25:40.760Z,6.68
2019-04-10T13:27:48.469Z,6.89
2019-04-10T13:29:57.439Z,7.05
2019-04-10T13:32:05.197Z,7.05
2019-04-10T13:34:18.196Z,6.93
2019-04-10T13:36:24.280Z,7.02
2019-04-10T13:38:36.826Z,6.86
2019-04-10T13:40:43.811Z,7.10
2019-04-10T13:42:51.506Z,7.18
2019-04-10T13:44:59.266Z,7.24
2019-04-10T13:47:07.030Z,7.19
2019-04-10T13:49:14.631Z,6.95
2019-04-10T13:51:21.989Z,6.81
2019-04-10T13:53:30.018Z,6.85
2019-04-10T13:55:37.015Z,6.68
2019-04-10T13:57:44.512Z,6.69
2019-04-10T13:59:53.278Z,6.58
2019-04-10T14:02:02.701Z,6.61
2019-04-10T14:04:11.136Z,6.70
2019-04-10T14:06:19.316Z,6.73
2019-04-10T14:08:40.466Z,6.96
2019-04-10T14:10:35.324Z,7.06
2019-04-10T14:12:43.023Z,7.30
2019-04-10T14:14:51.037Z,7.14
2019-04-10T14:16:59.263Z,7.20
2019-04-10T14:19:07.755Z,6.93
2019-04-10T14:21:17.348Z,6.98
2019-04-10T14:23:31.431Z,7.05
2019-04-10T14:25:42.712Z,7.02
2019-04-10T14:27:49.567Z,6.92
2019-04-10T14:29:56.777Z,6.90
2019-04-10T14:32:05.657Z,6.66
2019-04-10T14:34:12.517Z,6.50
2019-04-10T14:36:20.997Z,6.35
2019-04-10T14:38:28.941Z,6.37
2019-04-10T14:40:37.911Z,6.46
2019-04-10T14:42:44.752Z,6.65
2019-04-10T14:44:55.102Z,6.62
2019-04-10T14:47:02.308Z,6.62
2019-04-10T14:49:09.056Z,6.56
2019-04-10T14:51:16.503Z,6.58
2019-04-10T14:53:23.316Z,6.55
2019-04-10T14:55:33.453Z,6.46
2019-04-10T14:57:45.541Z,6.45
2019-04-10T14:59:52.552Z,6.49
2019-04-10T15:02:02.284Z,6.46
2019-04-10T15:04:10.922Z,6.51
2019-04-10T15:06:20.521Z,6.57
2019-04-10T15:08:27.971Z,6.53
2019-04-10T15:10:35.843Z,6.51
2019-04-10T15:12:45.793Z,6.55
2019-04-10T15:14:54.893Z,6.56
2019-04-10T15:17:04.500Z,6.62
2019-04-10T15:19:10.694Z,6.78
2019-04-10T15:21:18.581Z,6.81
2019-04-10T15:23:27.432Z,6.80
2019-04-10T15:25:35.271Z,6.75
2019-04-10T15:27:44.567Z,6.67
2019-04-10T15:29:54.709Z,6.76
2019-04-10T15:32:04.231Z,6.75
2019-04-10T15:34:14.055Z,6.75
2019-04-10T15:36:22.066Z,6.71
2019-04-10T15:38:30.300Z,6.63
2019-04-10T15:40:39.427Z,6.57
2019-04-10T15:42:48.489Z,6.43
2019-04-10T15:44:58.734Z,6.49
2019-04-10T15:47:15.831Z,6.37
2019-04-10T15:49:22.897Z,6.34
2019-04-10T15:51:30.361Z,6.25
2019-04-10T15:53:37.082Z,6.13
2019-04-10T15:55:45.317Z,6.09
2019-04-10T15:57:55.227Z,6.05
2019-04-10T16:00:00.950Z,6.08
2019-04-10T16:02:08.315Z,6.05
2019-04-10T16:04:15.243Z,6.00
2019-04-10T16:06:22.982Z,6.03
2019-04-10T16:08:29.898Z,6.02
2019-04-10T16:10:41.860Z,6.05
2019-04-10T16:12:49.881Z,6.15
2019-04-10T16:14:57.067Z,6.26
2019-04-10T16:17:08.761Z,6.34
2019-04-10T16:19:20.850Z,6.43
2019-04-10T16:21:29.806Z,6.43
2019-04-10T16:23:44.144Z,6.40
2019-04-10T16:25:58.652Z,6.33
2019-04-10T16:28:08.306Z,6.21
2019-04-10T16:30:20.141Z,6.09
2019-04-10T16:32:28.626Z,5.99
2019-04-10T16:34:39.538Z,5.82
2019-04-10T16:36:50.086Z,5.73
2019-04-10T16:39:00.916Z,5.66
2019-04-10T16:41:12.211Z,5.65
2019-04-10T16:43:20.221Z,5.59
2019-04-10T16:45:28.450Z,5.60
2019-04-10T16:47:36.536Z,5.62
2019-04-10T16:49:44.882Z,5.75
2019-04-10T16:51:53.927Z,5.93
2019-04-10T16:54:04.291Z,5.94
2019-04-10T16:56:13.522Z,5.94
2019-04-10T16:58:24.128Z,5.86
2019-04-10T17:00:35.338Z,5.71
2019-04-10T17:02:44.781Z,5.59
2019-04-10T17:04:52.948Z,5.52
2019-04-10T17:07:00.866Z,5.47
2019-04-10T17:09:12.252Z,5.43
2019-04-10T17:11:20.913Z,5.36
2019-04-10T17:13:28.773Z,5.22
2019-04-10T17:15:37.275Z,5.14
2019-04-10T17:17:47.416Z,5.04
2019-04-10T17:19:58.983Z,4.94
2019-04-10T17:22:07.018Z,4.87
2019-04-10T17:24:15.373Z,4.76
2019-04-10T17:26:22.710Z,4.70
2019-04-10T17:28:32.625Z,4.64
2019-04-10T17:31:02.349Z,4.57
2019-04-10T17:33:11.040Z,4.50
2019-04-10T17:35:21.369Z,4.46
2019-04-10T17:37:32.324Z,4.40
2019-04-10T17:39:41.675Z,4.35
2019-04-10T17:41:57.822Z,4.32
2019-04-10T17:44:07.617Z,4.27
2019-04-10T17:46:17.515Z,4.25
2019-04-10T17:48:25.914Z,4.20
2019-04-10T17:50:35.079Z,4.20
2019-04-10T17:52:43.187Z,4.20
2019-04-10T17:54:51.256Z,4.20
2019-04-10T17:56:57.978Z,4.20
2019-04-10T17:59:05.897Z,4.19
2019-04-10T18:01:14.571Z,4.19
2019-04-10T18:03:21.877Z,4.17
2019-04-10T18:05:29.467Z,4.18
2019-04-10T18:07:36.448Z,4.17
2019-04-10T18:09:44.375Z,4.19
2019-04-10T18:11:51.457Z,4.18
2019-04-10T18:14:00.790Z,4.17
2019-04-10T18:16:08.453Z,4.12
2019-04-10T18:18:15.869Z,4.10
2019-04-10T18:20:26.156Z,4.09
2019-04-10T18:22:34.746Z,4.05
2019-04-10T18:24:45.923Z,3.99
2019-04-10T18:26:55.325Z,3.91
2019-04-10T18:29:05.995Z,3.83
2019-04-10T18:31:16.636Z,3.78
2019-04-10T18:33:30.754Z,3.72
2019-04-10T18:35:40.819Z,3.62
2019-04-10T18:37:49.353Z,3.54
2019-04-10T18:40:01.214Z,3.48
2019-04-10T18:42:13.881Z,3.37
2019-04-10T18:44:22.850Z,3.26
2019-04-10T18:48:46.664Z,3.20
2019-04-10T18:50:54.520Z,3.21
2019-04-10T18:53:03.722Z,3.16
2019-04-10T18:55:14.244Z,3.15
2019-04-10T18:57:26.079Z,3.12
2019-04-10T19:00:06.003Z,3.08
2019-04-10T19:02:17.928Z,3.02
2019-04-10T19:04:43.355Z,2.97
2019-04-10T19:06:53.103Z,2.93
2019-04-10T19:09:10.158Z,2.85
2019-04-10T19:11:21.316Z,2.77
2019-04-10T19:13:24.742Z,2.71
2019-04-10T19:15:32.845Z,2.68
2019-04-10T19:17:40.537Z,2.65
2019-04-10T19:19:48.957Z,2.58
2019-04-10T19:21:56.065Z,2.55
2019-04-10T19:24:03.724Z,2.50
2019-04-10T19:26:13.875Z,2.44
2019-04-10T19:28:30.117Z,2.41
2019-04-10T19:30:35.400Z,2.37
2019-04-10T19:32:43.720Z,2.31
2019-04-10T19:34:51.818Z,2.24
2019-04-10T19:36:58.885Z,2.18
2019-04-10T19:39:09.732Z,2.13
2019-04-10T19:41:25.087Z,2.09
2019-04-10T19:43:28.937Z,2.03
2019-04-10T19:45:36.314Z,1.99
2019-04-10T19:47:44.363Z,1.94
2019-04-10T19:49:51.378Z,1.90
2019-04-10T19:51:58.597Z,1.84
2019-04-10T19:54:07.426Z,1.80
2019-04-10T19:56:14.695Z,1.75
2019-04-10T19:58:21.967Z,1.70
2019-04-10T20:00:30.579Z,1.65
2019-04-10T20:02:40.187Z,1.59
2019-04-10T20:04:48.888Z,1.57
2019-04-10T20:06:56.474Z,1.60
2019-04-10T20:09:04.185Z,1.64
2019-04-10T20:11:11.395Z,1.62
2019-04-10T20:13:19.067Z,1.57
2019-04-10T20:15:26.742Z,1.55
2019-04-10T20:17:33.906Z,1.55
2019-04-10T20:19:42.546Z,1.55
2019-04-10T20:21:50.360Z,1.58
2019-04-10T20:23:58.577Z,1.58
2019-04-10T20:26:07.063Z,1.58
2019-04-10T20:28:14.863Z,1.57
2019-04-10T20:30:23.714Z,1.56
2019-04-10T20:32:32.148Z,1.56
2019-04-10T20:34:39.895Z,1.56
2019-04-10T20:36:49.086Z,1.51
2019-04-10T20:38:56.831Z,1.48
2019-04-10T20:41:04.614Z,1.40
2019-04-10T20:43:13.037Z,1.36
2019-04-10T20:45:23.146Z,1.34
2019-04-10T20:47:30.943Z,1.32
2019-04-10T20:49:38.562Z,1.27
2019-04-10T20:51:45.994Z,1.24
2019-04-10T20:53:53.865Z,1.19
2019-04-10T20:56:02.359Z,1.17
2019-04-10T20:58:09.959Z,1.13
2019-04-10T21:00:32.704Z,1.08
2019-04-10T21:02:39.492Z,1.03
2019-04-10T21:04:54.660Z,0.94
2019-04-10T21:06:54.661Z,0.87
2019-04-10T21:09:01.166Z,0.79
2019-04-10T21:11:09.640Z,0.74
2019-04-10T21:13:17.063Z,0.72
2019-04-10T21:15:24.210Z,0.68
2019-04-10T21:17:31.929Z,0.63
2019-04-10T21:19:38.848Z,0.60
2019-04-10T21:21:46.664Z,0.58
2019-04-10T21:23:54.369Z,0.56
2019-04-10T21:26:01.337Z,0.56
2019-04-10T21:28:08.224Z,0.54
2019-04-10T21:30:15.723Z,0.52
2019-04-10T21:32:34.579Z,0.53
2019-04-10T21:34:43.081Z,0.56
2019-04-10T21:36:50.979Z,0.58
2019-04-10T21:39:00.954Z,0.58
2019-04-10T21:41:12.030Z,0.56
2019-04-10T21:43:18.563Z,0.56
2019-04-10T21:45:26.550Z,0.55
2019-04-10T21:47:33.535Z,0.56
2019-04-10T21:49:40.063Z,0.53
2019-04-10T21:51:47.375Z,0.52
2019-04-10T21:53:55.942Z,0.49
2019-04-10T21:56:04.164Z,0.46
2019-04-10T21:58:13.105Z,0.45
2019-04-10T22:00:22.720Z,0.42
2019-04-10T22:02:31.635Z,0.38
2019-04-10T22:04:39.193Z,0.35
2019-04-10T22:06:49.414Z,0.30
2019-04-10T22:09:01.883Z,0.25
2019-04-10T22:11:10.239Z,0.22
2019-04-10T22:13:17.208Z,0.17
2019-04-10T22:15:31.278Z,0.16
2019-04-10T22:17:38.354Z,0.13
2019-04-10T22:19:45.340Z,0.09
2019-04-10T22:21:51.958Z,0.07
2019-04-10T22:23:59.319Z,0.05
2019-04-10T22:26:06.097Z,0.03
2019-04-10T22:28:13.007Z,0.01
2019-04-10T22:30:21.195Z,-0.02
2019-04-10T22:32:29.318Z,-0.06
2019-04-10T22:34:36.400Z,-0.09
2019-04-10T22:36:44.931Z,-0.12
2019-04-10T22:38:51.887Z,-0.14
2019-04-10T22:40:58.258Z,-0.18
2019-04-10T22:43:05.778Z,-0.17
2019-04-10T22:45:29.236Z,-0.19
2019-04-10T22:47:36.895Z,-0.21
2019-04-10T22:49:43.478Z,-0.16
2019-04-10T22:51:51.825Z,-0.11
2019-04-10T22:54:02.065Z,-0.10
2019-04-10T22:56:08.905Z,-0.12
2019-04-10T22:58:15.668Z,-0.14
2019-04-10T23:00:24.519Z,-0.13
2019-04-10T23:02:31.974Z,-0.13
2019-04-10T23:04:39.145Z,-0.12
2019-04-10T23:06:47.495Z,-0.13
2019-04-10T23:08:54.158Z,-0.14
2019-04-10T23:11:01.474Z,-0.08
2019-04-10T23:13:08.900Z,-0.06
2019-04-10T23:15:17.627Z,-0.03
2019-04-10T23:17:24.366Z,-0.03
2019-04-10T23:19:31.079Z,-0.03
2019-04-10T23:21:39.070Z,-0.01
2019-04-10T23:23:45.858Z,-0.01
2019-04-10T23:25:53.073Z,0.00
2019-04-10T23:28:01.012Z,-0.01
2019-04-10T23:30:14.910Z,-0.03
2019-04-10T23:32:23.536Z,-0.06
2019-04-10T23:34:30.530Z,-0.06
2019-04-10T23:36:38.154Z,-0.08
2019-04-10T23:38:45.803Z,-0.10
2019-04-10T23:40:53.490Z,-0.10
2019-04-10T23:43:08.093Z,-0.09
2019-04-10T23:45:17.647Z,-0.09
2019-04-10T23:47:28.912Z,-0.07
2019-04-10T23:49:35.604Z,-0.09
2019-04-10T23:51:43.228Z,-0.09
2019-04-10T23:53:50.922Z,-0.08
2019-04-10T23:55:58.718Z,-0.08
2019-04-10T23:58:06.167Z,-0.11
